Time;durP1;ratioP1;P1;durP2;ratioP2;P2;SDS_P1;SDS_P2;PMS_P1;PMS_P2;Temp;Humidity;BMP_temperature;BMP_pressure;BME280_temperature;BME280_humidity;BME280_pressure;Samples;Min_cycle;Max_cycle;Signal;HPM_P1;HPM_P2
2022/09/12 00:01:31;;;;;;;;;;;;;;;;;;6230449;22;19925;-93
2022/09/12 00:03:57;;;;;;;;;;;;;;;;;;6232249;22;20297;-93
2022/09/12 00:06:23;;;;;;;;;;;;;;;;;;6236046;22;19922;-93
2022/09/12 00:08:49;;;;;;;;;;;;;;;;;;6232428;22;20623;-91
2022/09/12 00:11:15;;;;;;;;;;;;;;;;;;6259662;22;20034;-93
2022/09/12 00:13:41;;;;;;;;;;;;;;;;;;6230222;22;20002;-93
2022/09/12 00:16:07;;;;;;;;;;;;;;;;;;6232584;22;19926;-94
2022/09/12 00:18:33;;;;;;;;;;;;;;;;;;6231550;22;19919;-94
2022/09/12 00:21:00;;;;;;;;;;;;;;;;;;6233511;22;20332;-93
2022/09/12 00:23:26;;;;;;;;;;;;;;;;;;6232390;22;19950;-94
2022/09/12 00:25:52;;;;;;;;;;;;;;;;;;6231936;22;20276;-94
2022/09/12 00:28:18;;;;;;;;;;;;;;;;;;6234164;22;19918;-92
2022/09/12 00:30:44;;;;;;;;;;;;;;;;;;6232685;22;20456;-92
2022/09/12 00:33:10;;;;;;;;;;;;;;;;;;6233127;22;19919;-93
2022/09/12 00:35:36;;;;;;;;;;;;;;;;;;6231904;22;19972;-93
2022/09/12 00:38:02;;;;;;;;;;;;;;;;;;6235272;22;19915;-93
2022/09/12 00:40:28;;;;;;;;;;;;;;;;;;6259865;22;19925;-93
2022/09/12 00:42:55;;;;;;;;;;;;;;;;;;6232519;22;19926;-93
2022/09/12 00:45:21;;;;;;;;;;;;;;;;;;6236019;22;19919;-93
2022/09/12 00:47:47;;;;;;;;;;;;;;;;;;6232920;22;20411;-92
2022/09/12 00:50:13;;;;;;;;;;;;;;;;;;6233510;22;19925;-93
2022/09/12 00:52:39;;;;;;;;;;;;;;;;;;6231078;22;19923;-93
2022/09/12 00:55:05;;;;;;;;;;;;;;;;;;6259484;22;19968;-92
2022/09/12 00:57:31;;;;;;;;;;;;;;;;;;6231812;22;20340;-93
2022/09/12 00:59:57;;;;;;;;;;;;;;;;;;6235111;22;19919;-93
2022/09/12 01:02:23;;;;;;;;;;;;;;;;;;6233788;22;19922;-92
2022/09/12 01:04:50;;;;;;;;;;;;;;;;;;6231504;22;20297;-92
2022/09/12 01:07:16;;;;;;;;;;;;;;;;;;6235244;22;19930;-92
2022/09/12 01:09:42;;;;;;;;;;;;;;;;;;6259815;22;19923;-92
2022/09/12 01:12:08;;;;;;;;;;;;;;;;;;6235876;22;20307;-92
2022/09/12 01:14:34;;;;;;;;;;;;;;;;;;6230559;22;19938;-93
2022/09/12 01:17:00;;;;;;;;;;;;;;;;;;6232275;22;19923;-93
2022/09/12 01:19:26;;;;;;;;;;;;;;;;;;6236701;22;20000;-93
2022/09/12 01:21:52;;;;;;;;;;;;;;;;;;6233389;22;19918;-92
2022/09/12 01:24:18;;;;;;;;;;;;;;;;;;6236947;22;19997;-92
2022/09/12 01:26:44;;;;;;;;;;;;;;;;;;6256439;22;20407;-93
2022/09/12 01:29:10;;;;;;;;;;;;;;;;;;6237534;22;20298;-92
2022/09/12 01:31:36;;;;;;;;;;;;;;;;;;6283799;22;20249;-93
2022/09/12 01:34:01;;;;;;;;;;;;;;;;;;6261543;22;19954;-93
2022/09/12 01:36:28;;;;;;;;;;;;;;;;;;6232151;22;19919;-92
2022/09/12 01:38:54;;;;;;;;;;;;;;;;;;6232196;22;20537;-92
2022/09/12 01:41:20;;;;;;;;;;;;;;;;;;6261141;22;19938;-92
2022/09/12 01:43:47;;;;;;;;;;;;;;;;;;6233339;22;19919;-93
2022/09/12 01:46:13;;;;;;;;;;;;;;;;;;6235348;22;20355;-93
2022/09/12 01:48:39;;;;;;;;;;;;;;;;;;6233992;22;19919;-92
2022/09/12 01:51:05;;;;;;;;;;;;;;;;;;6236811;22;19929;-93
2022/09/12 01:53:31;;;;;;;;;;;;;;;;;;6237721;22;19989;-92
2022/09/12 01:55:57;;;;;;;;;;;;;;;;;;6238568;22;20228;-94
2022/09/12 01:58:23;;;;;;;;;;;;;;;;;;6289062;22;19919;-93
2022/09/12 02:00:49;;;;;;;;;;;;;;;;;;6231230;22;20838;-93
2022/09/12 02:03:15;;;;;;;;;;;;;;;;;;6259463;22;20250;-92
2022/09/12 02:05:41;;;;;;;;;;;;;;;;;;6261438;22;19953;-93
2022/09/12 02:08:07;;;;;;;;;;;;;;;;;;6236358;22;19918;-93
2022/09/12 02:10:33;;;;;;;;;;;;;;;;;;6234825;22;20298;-93
2022/09/12 02:12:59;;;;;;;;;;;;;;;;;;6234251;22;19922;-93
2022/09/12 02:15:25;;;;;;;;;;;;;;;;;;6257621;22;19968;-93
2022/09/12 02:17:51;;;;;;;;;;;;;;;;;;6233311;22;19968;-93
2022/09/12 02:20:17;;;;;;;;;;;;;;;;;;6234941;22;19946;-92
2022/09/12 02:22:43;;;;;;;;;;;;;;;;;;6239345;22;19942;-93
2022/09/12 02:25:09;;;;;;;;;;;;;;;;;;6234639;22;20351;-94
2022/09/12 02:27:36;;;;;;;;;;;;;;;;;;6259995;22;20639;-93
2022/09/12 02:30:02;;;;;;;;;;;;;;;;;;6239109;22;19986;-93
2022/09/12 02:32:33;;;;;;;;;;;;;;;;;;6236185;22;19998;-94
2022/09/12 02:34:59;;;;;;;;;;;;;;;;;;6237158;22;19922;-93
2022/09/12 02:37:26;;;;;;;;;;;;;;;;;;6237048;22;19926;-92
2022/09/12 02:39:54;;;;;;;;;;;;;;;;;;6261244;22;20402;-92
2022/09/12 02:42:20;;;;;;;;;;;;;;;;;;6262858;22;20419;-93
2022/09/12 02:44:46;;;;;;;;;;;;;;;;;;6234124;22;19949;-92
2022/09/12 02:47:12;;;;;;;;;;;;;;;;;;6232471;22;19976;-93
2022/09/12 02:49:38;;;;;;;;;;;;;;;;;;6232592;22;19958;-91
2022/09/12 02:52:04;;;;;;;;;;;;;;;;;;6239670;22;19919;-92
2022/09/12 02:54:29;;;;;;;;;;;;;;;;;;6235281;22;19926;-92
2022/09/12 02:56:55;;;;;;;;;;;;;;;;;;6236147;22;20318;-92
2022/09/12 02:59:21;;;;;;;;;;;;;;;;;;6239171;22;19922;-92
2022/09/12 03:01:48;;;;;;;;;;;;;;;;;;6232846;22;19971;-93
2022/09/12 03:04:14;;;;;;;;;;;;;;;;;;6237528;22;19919;-93
2022/09/12 03:06:40;;;;;;;;;;;;;;;;;;6234345;22;19976;-93
2022/09/12 03:09:06;;;;;;;;;;;;;;;;;;6236047;22;19922;-92
2022/09/12 03:11:32;;;;;;;;;;;;;;;;;;6234340;22;19918;-91
2022/09/12 03:14:00;;;;;;;;;;;;;;;;;;6236021;22;19926;-92
2022/09/12 03:16:26;;;;;;;;;;;;;;;;;;6236495;22;20351;-93
2022/09/12 03:18:52;;;;;;;;;;;;;;;;;;6233364;22;19978;-92
2022/09/12 03:21:18;;;;;;;;;;;;;;;;;;6238594;22;19984;-92
2022/09/12 03:23:44;;;;;;;;;;;;;;;;;;6238767;22;19919;-93
2022/09/12 03:26:10;;;;;;;;;;;;;;;;;;6238781;22;20274;-92
2022/09/12 03:28:36;;;;;;;;;;;;;;;;;;6233576;22;19976;-92
2022/09/12 03:31:02;;;;;;;;;;;;;;;;;;6235432;22;19922;-92
2022/09/12 03:33:31;;;;;;;;;;;;;;;;;;6235021;22;19923;-92
2022/09/12 03:35:57;;;;;;;;;;;;;;;;;;6238544;22;20270;-93
2022/09/12 03:38:23;;;;;;;;;;;;;;;;;;6235092;22;19923;-92
2022/09/12 03:40:49;;;;;;;;;;;;;;;;;;6234861;22;20818;-93
2022/09/12 03:43:15;;;;;;;;;;;;;;;;;;6235634;22;19964;-93
2022/09/12 03:45:41;;;;;;;;;;;;;;;;;;6235923;22;19926;-92
2022/09/12 03:48:07;;;;;;;;;;;;;;;;;;6233600;22;19926;-92
2022/09/12 03:50:33;;;;;;;;;;;;;;;;;;6232905;22;19922;-92
2022/09/12 03:52:59;;;;;;;;;;;;;;;;;;6234978;22;19919;-92
2022/09/12 03:55:25;;;;;;;;;;;;;;;;;;6236667;22;20246;-93
2022/09/12 03:57:51;;;;;;;;;;;;;;;;;;6233593;22;20326;-92
2022/09/12 04:00:17;;;;;;;;;;;;;;;;;;6235179;22;19918;-92
2022/09/12 04:02:43;;;;;;;;;;;;;;;;;;6232063;22;20279;-92
2022/09/12 04:05:09;;;;;;;;;;;;;;;;;;6261622;22;19988;-92
2022/09/12 04:07:35;;;;;;;;;;;;;;;;;;6230179;22;19919;-92
2022/09/12 04:10:01;;;;;;;;;;;;;;;;;;6237160;22;19919;-92
2022/09/12 04:12:27;;;;;;;;;;;;;;;;;;6236402;22;20327;-92
2022/09/12 04:14:56;;;;;;;;;;;;;;;;;;6258733;22;19968;-93
2022/09/12 04:17:22;;;;;;;;;;;;;;;;;;6237400;22;20255;-92
2022/09/12 04:19:48;;;;;;;;;;;;;;;;;;6258653;22;19945;-92
2022/09/12 04:22:14;;;;;;;;;;;;;;;;;;6235797;22;19922;-92
2022/09/12 04:24:40;;;;;;;;;;;;;;;;;;6262716;22;19930;-93
2022/09/12 04:27:06;;;;;;;;;;;;;;;;;;6262507;22;20340;-92
2022/09/12 04:29:32;;;;;;;;;;;;;;;;;;6232749;22;20285;-94
2022/09/12 04:31:58;;;;;;;;;;;;;;;;;;6236903;22;19923;-92
2022/09/12 04:34:24;;;;;;;;;;;;;;;;;;6237208;22;19945;-91
2022/09/12 04:36:50;;;;;;;;;;;;;;;;;;6236172;22;20418;-92
2022/09/12 04:39:16;;;;;;;;;;;;;;;;;;6237228;22;19919;-92
2022/09/12 04:41:42;;;;;;;;;;;;;;;;;;6233792;22;19989;-91
2022/09/12 04:44:08;;;;;;;;;;;;;;;;;;6265244;22;19919;-91
2022/09/12 04:46:34;;;;;;;;;;;;;;;;;;6237371;22;19919;-92
2022/09/12 04:49:00;;;;;;;;;;;;;;;;;;6240159;22;20019;-92
2022/09/12 04:51:26;;;;;;;;;;;;;;;;;;6240804;22;19923;-92
2022/09/12 04:53:52;;;;;;;;;;;;;;;;;;6263589;22;19918;-92
2022/09/12 04:56:18;;;;;;;;;;;;;;;;;;6240145;22;19919;-91
2022/09/12 04:58:44;;;;;;;;;;;;;;;;;;6262064;22;20021;-92
2022/09/12 05:01:10;;;;;;;;;;;;;;;;;;6265441;22;20367;-91
2022/09/12 05:03:39;;;;;;;;;;;;;;;;;;6238504;22;19918;-91
2022/09/12 05:06:05;;;;;;;;;;;;;;;;;;6266896;22;19919;-91
2022/09/12 05:08:31;;;;;;;;;;;;;;;;;;6264635;22;20018;-91
2022/09/12 05:10:57;;;;;;;;;;;;;;;;;;6243079;22;19919;-91
2022/09/12 05:13:24;;;;;;;;;;;;;;;;;;6240206;22;20454;-92
2022/09/12 05:15:49;;;;;;;;;;;;;;;;;;6236873;22;21093;-92
2022/09/12 05:18:15;;;;;;;;;;;;;;;;;;6238363;22;19926;-92
2022/09/12 05:20:41;;;;;;;;;;;;;;;;;;6239167;22;19934;-91
2022/09/12 05:23:07;;;;;;;;;;;;;;;;;;6240536;22;19969;-92
2022/09/12 05:25:33;;;;;;;;;;;;;;;;;;6261421;22;19918;-92
2022/09/12 05:27:59;;;;;;;;;;;;;;;;;;6238139;22;19926;-92
2022/09/12 05:30:25;;;;;;;;;;;;;;;;;;6239482;22;19919;-92
2022/09/12 05:32:51;;;;;;;;;;;;;;;;;;6236464;22;19968;-92
2022/09/12 05:35:17;;;;;;;;;;;;;;;;;;6242606;22;20312;-92
2022/09/12 05:37:43;;;;;;;;;;;;;;;;;;6235684;22;19919;-92
2022/09/12 05:40:09;;;;;;;;;;;;;;;;;;6263325;22;19915;-92
2022/09/12 05:42:35;;;;;;;;;;;;;;;;;;6235662;22;19925;-92
2022/09/12 05:45:01;;;;;;;;;;;;;;;;;;6266358;22;19915;-92
2022/09/12 05:47:27;;;;;;;;;;;;;;;;;;6238756;22;19976;-91
2022/09/12 05:49:54;;;;;;;;;;;;;;;;;;6239008;22;19951;-91
2022/09/12 05:52:19;;;;;;;;;;;;;;;;;;6243909;22;19922;-91
2022/09/12 05:54:46;;;;;;;;;;;;;;;;;;6237210;22;19993;-92
2022/09/12 05:57:12;;;;;;;;;;;;;;;;;;6237302;22;19922;-92
2022/09/12 05:59:38;;;;;;;;;;;;;;;;;;6236277;22;19918;-92
2022/09/12 06:02:04;;;;;;;;;;;;;;;;;;6262076;22;20000;-91
2022/09/12 06:04:30;;;;;;;;;;;;;;;;;;6239020;22;19988;-92
2022/09/12 06:06:56;;;;;;;;;;;;;;;;;;6239382;22;19922;-91
2022/09/12 06:09:24;;;;;;;;;;;;;;;;;;6240910;22;19918;-91
2022/09/12 06:11:50;;;;;;;;;;;;;;;;;;6235185;22;20220;-92
2022/09/12 06:14:16;;;;;;;;;;;;;;;;;;6240081;22;19930;-91
2022/09/12 06:16:42;;;;;;;;;;;;;;;;;;6265204;22;19915;-92
2022/09/12 06:19:09;;;;;;;;;;;;;;;;;;6237412;22;20336;-91
2022/09/12 06:21:36;;;;;;;;;;;;;;;;;;6235869;22;20621;-91
2022/09/12 06:24:02;;;;;;;;;;;;;;;;;;6239615;22;19919;-91
2022/09/12 06:26:28;;;;;;;;;;;;;;;;;;6235595;22;19919;-91
2022/09/12 06:28:55;;;;;;;;;;;;;;;;;;6243941;22;19926;-91
2022/09/12 06:31:21;;;;;;;;;;;;;;;;;;6242135;22;19923;-91
2022/09/12 06:33:47;;;;;;;;;;;;;;;;;;6240840;22;19918;-91
2022/09/12 06:36:14;;;;;;;;;;;;;;;;;;6242235;22;20259;-91
2022/09/12 06:38:40;;;;;;;;;;;;;;;;;;6267481;22;19980;-91
2022/09/12 06:41:06;;;;;;;;;;;;;;;;;;6237855;22;19954;-91
2022/09/12 06:43:32;;;;;;;;;;;;;;;;;;6230915;22;19938;-91
2022/09/12 06:45:58;;;;;;;;;;;;;;;;;;6238565;22;19919;-90
2022/09/12 06:48:24;;;;;;;;;;;;;;;;;;6239817;22;19997;-92
2022/09/12 06:50:50;;;;;;;;;;;;;;;;;;6236954;22;20049;-91
2022/09/12 06:53:16;;;;;;;;;;;;;;;;;;6241356;22;19922;-91
2022/09/12 06:55:41;;;;;;;;;;;;;;;;;;6242431;22;19964;-91
2022/09/12 06:58:08;;;;;;;;;;;;;;;;;;6241102;22;19915;-91
2022/09/12 07:00:35;;;;;;;;;;;;;;;;;;6271281;22;19918;-92
2022/09/12 07:03:01;;;;;;;;;;;;;;;;;;6246182;22;19918;-91
2022/09/12 07:05:27;;;;;;;;;;;;;;;;;;6240078;22;19915;-92
2022/09/12 07:07:53;;;;;;;;;;;;;;;;;;6242849;22;20293;-92
2022/09/12 07:10:19;;;;;;;;;;;;;;;;;;6273375;22;19991;-92
2022/09/12 07:12:46;;;;;;;;;;;;;;;;;;6273494;22;19923;-93
2022/09/12 07:15:12;;;;;;;;;;;;;;;;;;6250105;22;19929;-92
2022/09/12 07:17:38;;;;;;;;;;;;;;;;;;6245559;22;19964;-92
2022/09/12 07:20:04;;;;;;;;;;;;;;;;;;6248534;22;19961;-93
2022/09/12 07:22:30;;;;;;;;;;;;;;;;;;6273426;22;19919;-91
2022/09/12 07:24:56;;;;;;;;;;;;;;;;;;6251854;22;20375;-92
2022/09/12 07:27:22;;;;;;;;;;;;;;;;;;6248210;22;19915;-94
2022/09/12 07:29:56;;;;;;;;;;;;;;;;;;6247113;22;19918;-91
2022/09/12 07:32:22;;;;;;;;;;;;;;;;;;6249885;22;20419;-92
2022/09/12 07:34:49;;;;;;;;;;;;;;;;;;6274910;22;19915;-93
2022/09/12 07:37:15;;;;;;;;;;;;;;;;;;6250760;22;19922;-92
2022/09/12 07:39:41;;;;;;;;;;;;;;;;;;6250060;22;19918;-92
2022/09/12 07:42:07;;;;;;;;;;;;;;;;;;6251849;22;19919;-92
2022/09/12 07:44:33;;;;;;;;;;;;;;;;;;6248907;22;19925;-92
2022/09/12 07:46:59;;;;;;;;;;;;;;;;;;6250715;22;19986;-92
2022/09/12 07:49:25;;;;;;;;;;;;;;;;;;6251162;22;20032;-92
2022/09/12 07:51:51;;;;;;;;;;;;;;;;;;6248421;22;19973;-93
2022/09/12 07:54:17;;;;;;;;;;;;;;;;;;6249899;22;19915;-91
2022/09/12 07:56:43;;;;;;;;;;;;;;;;;;6247595;22;19915;-92
2022/09/12 07:59:09;;;;;;;;;;;;;;;;;;6249244;22;20209;-92
2022/09/12 08:01:35;;;;;;;;;;;;;;;;;;6246472;22;19918;-92
2022/09/12 08:04:02;;;;;;;;;;;;;;;;;;6276601;22;19915;-92
2022/09/12 08:06:31;;;;;;;;;;;;;;;;;;6276359;22;19998;-93
2022/09/12 08:08:56;;;;;;;;;;;;;;;;;;6251343;22;19919;-93
2022/09/12 08:11:22;;;;;;;;;;;;;;;;;;6250260;22;20248;-92
2022/09/12 08:13:50;;;;;;;;;;;;;;;;;;6245475;22;19926;-92
2022/09/12 08:16:17;;;;;;;;;;;;;;;;;;6274317;22;19923;-93
2022/09/12 08:18:42;;;;;;;;;;;;;;;;;;6245714;22;19957;-92
2022/09/12 08:21:08;;;;;;;;;;;;;;;;;;6250290;22;19918;-93
2022/09/12 08:23:34;;;;;;;;;;;;;;;;;;6247768;22;19919;-93
2022/09/12 08:26:02;;;;;;;;;;;;;;;;;;6247820;22;19993;-93
2022/09/12 08:28:28;;;;;;;;;;;;;;;;;;6271664;22;19918;-93
2022/09/12 08:30:54;;;;;;;;;;;;;;;;;;6244873;22;20426;-94
2022/09/12 08:33:21;;;;;;;;;;;;;;;;;;6247355;22;19919;-93
2022/09/12 08:35:47;;;;;;;;;;;;;;;;;;6267578;22;19929;-89
2022/09/12 08:38:13;;;;;;;;;;;;;;;;;;6268227;22;20303;-87
2022/09/12 08:40:39;;;;;;;;;;;;;;;;;;6267826;22;19946;-87
2022/09/12 08:43:05;;;;;;;;;;;;;;;;;;6271312;22;19980;-84
2022/09/12 08:45:31;;;;;;;;;;;;;;;;;;6268282;22;19954;-85
2022/09/12 08:47:57;;;;;;;;;;;;;;;;;;6246034;22;19936;-86
2022/09/12 08:50:23;;;;;;;;;;;;;;;;;;6245639;22;19965;-85
2022/09/12 08:52:49;;;;;;;;;;;;;;;;;;6268687;22;19923;-85
2022/09/12 08:55:15;;;;;;;;;;;;;;;;;;6241966;22;20287;-86
2022/09/12 08:57:41;;;;;;;;;;;;;;;;;;6236871;22;19942;-86
2022/09/12 09:00:06;;;;;;;;;;;;;;;;;;6241718;22;19961;-86
2022/09/12 09:02:33;;;;;;;;;;;;;;;;;;6263515;22;19919;-86
2022/09/12 09:04:59;;;;;;;;;;;;;;;;;;6267905;22;20517;-86
2022/09/12 09:07:25;;;;;;;;;;;;;;;;;;6241962;22;19930;-86
2022/09/12 09:09:51;;;;;;;;;;;;;;;;;;6262810;22;19918;-86
2022/09/12 09:12:17;;;;;;;;;;;;;;;;;;6266340;22;20328;-86
2022/09/12 09:14:49;;;;;;;;;;;;;;;;;;6241446;22;20298;-86
2022/09/12 09:17:15;;;;;;;;;;;;;;;;;;6267353;22;19942;-86
2022/09/12 09:19:41;;;;;;;;;;;;;;;;;;6264445;22;19919;-86
2022/09/12 09:22:07;;;;;;;;;;;;;;;;;;6266060;22;19918;-88
2022/09/12 09:24:33;;;;;;;;;;;;;;;;;;6239901;22;19925;-90
2022/09/12 09:26:59;;;;;;;;;;;;;;;;;;6266275;22;19915;-87
2022/09/12 09:29:26;;;;;;;;;;;;;;;;;;6270738;22;19968;-87
2022/09/12 09:31:52;;;;;;;;;;;;;;;;;;6267186;22;19950;-87
2022/09/12 09:34:18;;;;;;;;;;;;;;;;;;6246092;22;20244;-87
2022/09/12 09:36:44;;;;;;;;;;;;;;;;;;6267995;22;20666;-87
2022/09/12 09:39:10;;;;;;;;;;;;;;;;;;6270579;22;19923;-87
2022/09/12 09:41:36;;;;;;;;;;;;;;;;;;6265989;22;19919;-87
2022/09/12 09:44:02;;;;;;;;;;;;;;;;;;6247221;22;20036;-87
2022/09/12 09:46:28;;;;;;;;;;;;;;;;;;6244917;22;19915;-86
2022/09/12 09:48:54;;;;;;;;;;;;;;;;;;6240676;22;19951;-87
2022/09/12 09:51:20;;;;;;;;;;;;;;;;;;6243147;22;19933;-86
2022/09/12 09:53:47;;;;;;;;;;;;;;;;;;6265092;22;19915;-87
2022/09/12 09:56:13;;;;;;;;;;;;;;;;;;6270553;22;19915;-87
2022/09/12 09:58:39;;;;;;;;;;;;;;;;;;6240483;22;19918;-88
2022/09/12 10:01:05;;;;;;;;;;;;;;;;;;6244513;22;19919;-86
2022/09/12 10:03:32;;;;;;;;;;;;;;;;;;6269247;22;19922;-88
2022/09/12 10:05:59;;;;;;;;;;;;;;;;;;6271700;22;19914;-86
2022/09/12 10:08:25;;;;;;;;;;;;;;;;;;6268951;22;19977;-86
2022/09/12 10:10:51;;;;;;;;;;;;;;;;;;6266962;22;20102;-86
2022/09/12 10:13:17;;;;;;;;;;;;;;;;;;6270010;22;19918;-86
2022/09/12 10:15:43;;;;;;;;;;;;;;;;;;6267861;22;20329;-87
2022/09/12 10:18:09;;;;;;;;;;;;;;;;;;6267031;22;20009;-86
2022/09/12 10:20:35;;;;;;;;;;;;;;;;;;6241341;22;19998;-87
2022/09/12 10:23:01;;;;;;;;;;;;;;;;;;6244775;22;20327;-93
2022/09/12 10:25:27;;;;;;;;;;;;;;;;;;6245213;22;19941;-93
2022/09/12 10:27:54;;;;;;;;;;;;;;;;;;6239722;22;20228;-93
2022/09/12 10:30:20;;;;;;;;;;;;;;;;;;6244836;22;20381;-91
2022/09/12 10:32:47;;;;;;;;;;;;;;;;;;6240635;22;20324;-92
2022/09/12 10:35:13;;;;;;;;;;;;;;;;;;6243208;22;19914;-92
2022/09/12 10:37:39;;;;;;;;;;;;;;;;;;6239979;22;19962;-93
2022/09/12 10:40:05;;;;;;;;;;;;;;;;;;6243348;22;19997;-92
2022/09/12 10:42:31;;;;;;;;;;;;;;;;;;6266279;22;19977;-92
2022/09/12 10:44:57;;;;;;;;;;;;;;;;;;6242155;22;19919;-92
2022/09/12 10:47:23;;;;;;;;;;;;;;;;;;6240328;22;20286;-94
2022/09/12 10:49:49;;;;;;;;;;;;;;;;;;6266899;22;19919;-93
2022/09/12 10:52:16;;;;;;;;;;;;;;;;;;6272053;22;20324;-93
2022/09/12 10:54:42;;;;;;;;;;;;;;;;;;6268790;22;19919;-94
2022/09/12 10:57:08;;;;;;;;;;;;;;;;;;6272616;22;19949;-94
2022/09/12 10:59:34;;;;;;;;;;;;;;;;;;6267803;22;19922;-93
2022/09/12 11:02:00;;;;;;;;;;;;;;;;;;6245786;22;20023;-94
2022/09/12 11:04:26;;;;;;;;;;;;;;;;;;6272596;22;19922;-93
2022/09/12 11:06:52;;;;;;;;;;;;;;;;;;6244359;22;19923;-93
2022/09/12 11:09:18;;;;;;;;;;;;;;;;;;6247200;22;19915;-93
2022/09/12 11:11:44;;;;;;;;;;;;;;;;;;6242432;22;19923;-94
2022/09/12 11:14:10;;;;;;;;;;;;;;;;;;6246133;22;19990;-94
2022/09/12 11:16:36;;;;;;;;;;;;;;;;;;6267615;22;20359;-93
2022/09/12 11:19:03;;;;;;;;;;;;;;;;;;6245287;22;19957;-94
2022/09/12 11:21:29;;;;;;;;;;;;;;;;;;6246073;22;20237;-93
2022/09/12 11:23:55;;;;;;;;;;;;;;;;;;6246062;22;19987;-94
2022/09/12 11:26:21;;;;;;;;;;;;;;;;;;6245238;22;19919;-93
2022/09/12 11:28:47;;;;;;;;;;;;;;;;;;6269659;22;19925;-94
2022/09/12 11:31:14;;;;;;;;;;;;;;;;;;6246410;22;20298;-95
2022/09/12 11:33:42;;;;;;;;;;;;;;;;;;6242552;22;20386;-93
2022/09/12 11:36:08;;;;;;;;;;;;;;;;;;6246276;22;19919;-93
2022/09/12 11:38:34;;;;;;;;;;;;;;;;;;6243403;22;19926;-94
2022/09/12 11:41:00;;;;;;;;;;;;;;;;;;6247140;22;19925;-94
2022/09/12 11:43:26;;;;;;;;;;;;;;;;;;6243496;22;19922;-94
2022/09/12 11:45:52;;;;;;;;;;;;;;;;;;6238554;22;19918;-94
2022/09/12 11:48:18;;;;;;;;;;;;;;;;;;6243527;22;19918;-94
2022/09/12 11:50:44;;;;;;;;;;;;;;;;;;6239519;22;20336;-95
2022/09/12 11:53:11;;;;;;;;;;;;;;;;;;6246325;22;19927;-95
2022/09/12 11:55:39;;;;;;;;;;;;;;;;;;6268292;22;20246;-93
2022/09/12 11:58:05;;;;;;;;;;;;;;;;;;6267311;22;19965;-94
2022/09/12 12:00:34;;;;;;;;;;;;;;;;;;6240943;22;19920;-93
2022/09/12 12:03:00;;;;;;;;;;;;;;;;;;6245696;22;19919;-92
2022/09/12 12:05:27;;;;;;;;;;;;;;;;;;6265535;22;19960;-95
2022/09/12 12:07:53;;;;;;;;;;;;;;;;;;6242067;22;19915;-95
2022/09/12 12:10:19;;;;;;;;;;;;;;;;;;6243397;22;20329;-94
2022/09/12 12:12:45;;;;;;;;;;;;;;;;;;6266425;22;20012;-94
2022/09/12 12:15:11;;;;;;;;;;;;;;;;;;6240790;22;19923;-94
2022/09/12 12:17:37;;;;;;;;;;;;;;;;;;6260279;22;19923;-95
2022/09/12 12:20:03;;;;;;;;;;;;;;;;;;6235175;22;20017;-94
2022/09/12 12:22:32;;;;;;;;;;;;;;;;;;6264207;22;19969;-94
2022/09/12 12:24:58;;;;;;;;;;;;;;;;;;6262397;22;19919;-92
2022/09/12 12:27:24;;;;;;;;;;;;;;;;;;6234464;22;19915;-94
2022/09/12 12:29:50;;;;;;;;;;;;;;;;;;6233841;22;20247;-95
2022/09/12 12:32:23;;;;;;;;;;;;;;;;;;6246716;22;22003;-94
2022/09/12 12:34:49;;;;;;;;;;;;;;;;;;6234172;22;19950;-93
2022/09/12 12:37:15;;;;;;;;;;;;;;;;;;6260940;22;20385;-94
2022/09/12 12:39:41;;;;;;;;;;;;;;;;;;6233898;22;19969;-95
2022/09/12 12:42:07;;;;;;;;;;;;;;;;;;6237107;22;20284;-94
2022/09/12 12:44:33;;;;;;;;;;;;;;;;;;6234211;22;20397;-94
2022/09/12 12:46:59;;;;;;;;;;;;;;;;;;6235040;22;19926;-95
2022/09/12 12:49:25;;;;;;;;;;;;;;;;;;6260417;22;20252;-96
2022/09/12 12:51:51;;;;;;;;;;;;;;;;;;6260166;22;19930;-95
2022/09/12 12:54:17;;;;;;;;;;;;;;;;;;6236881;22;19915;-95
2022/09/12 12:56:43;;;;;;;;;;;;;;;;;;6262622;22;19926;-95
2022/09/12 12:59:09;;;;;;;;;;;;;;;;;;6234348;22;19951;-94
2022/09/12 13:01:39;;;;;;;;;;;;;;;;;;6232579;22;20312;-95
2022/09/12 13:04:05;;;;;;;;;;;;;;;;;;6235494;22;19919;-95
2022/09/12 13:06:31;;;;;;;;;;;;;;;;;;6261486;22;20010;-96
2022/09/12 13:08:58;;;;;;;;;;;;;;;;;;6238947;22;19951;-94
2022/09/12 13:11:24;;;;;;;;;;;;;;;;;;6237553;22;19923;-94
2022/09/12 13:13:50;;;;;;;;;;;;;;;;;;6234266;22;19930;-95
2022/09/12 13:16:17;;;;;;;;;;;;;;;;;;6241131;22;19926;-95
2022/09/12 13:18:43;;;;;;;;;;;;;;;;;;6242171;22;20430;-95
2022/09/12 13:21:09;;;;;;;;;;;;;;;;;;6244238;22;19919;-95
2022/09/12 13:23:35;;;;;;;;;;;;;;;;;;6242359;22;19994;-95
2022/09/12 13:26:02;;;;;;;;;;;;;;;;;;6270805;22;19919;-94
2022/09/12 13:28:28;;;;;;;;;;;;;;;;;;6245012;22;19919;-94
2022/09/12 13:30:55;;;;;;;;;;;;;;;;;;6242968;22;20233;-95
2022/09/12 13:33:21;;;;;;;;;;;;;;;;;;6243719;22;19919;-96
2022/09/12 13:35:47;;;;;;;;;;;;;;;;;;6241862;22;19919;-95
2022/09/12 13:38:13;;;;;;;;;;;;;;;;;;6242130;22;20036;-95
2022/09/12 13:40:39;;;;;;;;;;;;;;;;;;6242491;22;20220;-96
2022/09/12 13:43:05;;;;;;;;;;;;;;;;;;6245224;22;19918;-95
2022/09/12 13:45:31;;;;;;;;;;;;;;;;;;6265715;22;19973;-96
2022/09/12 13:47:56;;;;;;;;;;;;;;;;;;6243398;22;19923;-95
2022/09/12 13:50:25;;;;;;;;;;;;;;;;;;6243139;22;19926;-94
2022/09/12 13:52:51;;;;;;;;;;;;;;;;;;6240020;22;20006;-96
2022/09/12 13:55:18;;;;;;;;;;;;;;;;;;6245063;22;20065;-95
2022/09/12 13:57:44;;;;;;;;;;;;;;;;;;6242766;22;19923;-85
2022/09/12 14:00:10;;;;;;;;;;;;;;;;;;6270073;22;20291;-86
2022/09/12 14:02:36;;;;;;;;;;;;;;;;;;6267687;22;20402;-86
2022/09/12 14:05:09;;;;;;;;;;;;;;;;;;6248291;22;19946;-86
2022/09/12 14:07:36;;;;;;;;;;;;;;;;;;6264855;22;19918;-85
2022/09/12 14:10:04;;;;;;;;;;;;;;;;;;6265469;22;19915;-85
2022/09/12 14:12:31;;;;;;;;;;;;;;;;;;6242183;22;19927;-86
2022/09/12 14:14:57;;;;;;;;;;;;;;;;;;6231333;22;19923;-88
2022/09/12 14:17:23;;;;;;;;;;;;;;;;;;6257863;22;19923;-89
2022/09/12 14:19:49;;;;;;;;;;;;;;;;;;6252487;22;20022;-88
2022/09/12 14:22:18;;;;;;;;;;;;;;;;;;6230324;22;20021;-89
2022/09/12 14:24:46;;;;;;;;;;;;;;;;;;6254881;22;19919;-88
2022/09/12 14:27:15;;;;;;;;;;;;;;;;;;6261299;22;19920;-88
2022/09/12 14:29:42;;;;;;;;;;;;;;;;;;6260696;22;20319;-88
2022/09/12 14:32:08;;;;;;;;;;;;;;;;;;6265493;22;19930;-89
2022/09/12 14:34:34;;;;;;;;;;;;;;;;;;6257770;22;19934;-89
2022/09/12 14:37:00;;;;;;;;;;;;;;;;;;6262336;22;19929;-89
2022/09/12 14:39:26;;;;;;;;;;;;;;;;;;6234029;22;19919;-88
2022/09/12 14:41:52;;;;;;;;;;;;;;;;;;6259725;22;19976;-88
2022/09/12 14:44:18;;;;;;;;;;;;;;;;;;6260317;22;19915;-88
2022/09/12 14:46:44;;;;;;;;;;;;;;;;;;6258642;22;19919;-88
2022/09/12 14:49:10;;;;;;;;;;;;;;;;;;6262823;22;19926;-88
2022/09/12 14:51:36;;;;;;;;;;;;;;;;;;6258140;22;19991;-88
2022/09/12 14:54:02;;;;;;;;;;;;;;;;;;6235098;22;19994;-88
2022/09/12 14:56:28;;;;;;;;;;;;;;;;;;6260937;22;19970;-88
2022/09/12 14:58:54;;;;;;;;;;;;;;;;;;6256872;22;19954;-88
2022/09/12 15:01:21;;;;;;;;;;;;;;;;;;6236617;22;19923;-88
2022/09/12 15:03:48;;;;;;;;;;;;;;;;;;6231709;22;19919;-87
2022/09/12 15:06:14;;;;;;;;;;;;;;;;;;6261566;22;19922;-88
2022/09/12 15:08:40;;;;;;;;;;;;;;;;;;6256723;22;19923;-88
2022/09/12 15:11:06;;;;;;;;;;;;;;;;;;6230748;22;20294;-88
2022/09/12 15:13:32;;;;;;;;;;;;;;;;;;6255486;22;19919;-88
2022/09/12 15:15:58;;;;;;;;;;;;;;;;;;6234155;22;19925;-88
2022/09/12 15:18:24;;;;;;;;;;;;;;;;;;6259111;22;20026;-88
2022/09/12 15:20:50;;;;;;;;;;;;;;;;;;6231537;22;19933;-88
2022/09/12 15:23:16;;;;;;;;;;;;;;;;;;6236548;22;19915;-88
2022/09/12 15:25:42;;;;;;;;;;;;;;;;;;6258711;22;19915;-88
2022/09/12 15:28:08;;;;;;;;;;;;;;;;;;6258774;22;19958;-88
2022/09/12 15:30:34;;;;;;;;;;;;;;;;;;6257743;22;20608;-88
2022/09/12 15:33:00;;;;;;;;;;;;;;;;;;6257249;22;20105;-88
2022/09/12 15:35:26;;;;;;;;;;;;;;;;;;6260087;22;19919;-88
2022/09/12 15:37:52;;;;;;;;;;;;;;;;;;6230371;22;19919;-88
2022/09/12 15:40:18;;;;;;;;;;;;;;;;;;6257102;22;19919;-88
2022/09/12 15:42:44;;;;;;;;;;;;;;;;;;6255861;22;19934;-89
2022/09/12 15:45:10;;;;;;;;;;;;;;;;;;6259036;22;19923;-89
2022/09/12 15:47:36;;;;;;;;;;;;;;;;;;6230075;22;19994;-89
2022/09/12 15:50:02;;;;;;;;;;;;;;;;;;6230824;22;19919;-89
2022/09/12 15:52:29;;;;;;;;;;;;;;;;;;6233602;22;19919;-89
2022/09/12 15:54:55;;;;;;;;;;;;;;;;;;6231374;22;19919;-89
2022/09/12 15:57:21;;;;;;;;;;;;;;;;;;6230891;22;19919;-88
2022/09/12 15:59:47;;;;;;;;;;;;;;;;;;6255390;22;19923;-88
2022/09/12 16:02:13;;;;;;;;;;;;;;;;;;6256003;22;20286;-89
2022/09/12 16:04:39;;;;;;;;;;;;;;;;;;6228354;22;20300;-88
2022/09/12 16:07:05;;;;;;;;;;;;;;;;;;6257580;22;19919;-88
2022/09/12 16:09:31;;;;;;;;;;;;;;;;;;6228231;22;19965;-88
2022/09/12 16:11:57;;;;;;;;;;;;;;;;;;6254958;22;20397;-88
2022/09/12 16:14:23;;;;;;;;;;;;;;;;;;6256182;22;19935;-88
2022/09/12 16:16:49;;;;;;;;;;;;;;;;;;6252354;22;20001;-88
2022/09/12 16:19:15;;;;;;;;;;;;;;;;;;6254168;22;19919;-88
2022/09/12 16:21:41;;;;;;;;;;;;;;;;;;6252120;22;19919;-88
2022/09/12 16:24:07;;;;;;;;;;;;;;;;;;6230170;22;19950;-88
2022/09/12 16:26:33;;;;;;;;;;;;;;;;;;6258550;22;20248;-87
2022/09/12 16:28:59;;;;;;;;;;;;;;;;;;6259655;22;19919;-88
2022/09/12 16:31:25;;;;;;;;;;;;;;;;;;6260793;22;20671;-88
2022/09/12 16:33:51;;;;;;;;;;;;;;;;;;6250938;22;20298;-88
2022/09/12 16:36:17;;;;;;;;;;;;;;;;;;6253830;22;20017;-87
2022/09/12 16:38:43;;;;;;;;;;;;;;;;;;6254261;22;19919;-88